Time;durP1;ratioP1;P1;durP2;ratioP2;P2;SDS_P1;SDS_P2;PMS_P1;PMS_P2;Temp;Humidity;BMP_temperature;BMP_pressure;BME280_temperature;BME280_humidity;BME280_pressure;Samples;Min_cycle;Max_cycle;Signal;HPM_P1;HPM_P2
2022/06/02 00:03:03;;;;;;;14.85;13.38;;;8.40;99.90;;;;;;4959851;28;20382;-44
2022/06/02 00:05:54;;;;;;;16.48;14.80;;;8.40;99.90;;;;;;4940001;28;20093;-44
2022/06/02 00:08:42;;;;;;;22.08;19.67;;;8.30;99.90;;;;;;4960325;28;20078;-45
2022/06/02 00:11:45;;;;;;;15.85;14.35;;;8.30;99.90;;;;;;4960614;28;20051;-45
2022/06/02 00:14:33;;;;;;;15.03;13.53;;;8.30;99.90;;;;;;4959672;28;20050;-45
2022/06/02 00:17:38;;;;;;;15.48;13.98;;;8.20;99.90;;;;;;4959886;28;20701;-45
2022/06/02 00:20:08;;;;;;;15.95;14.45;;;8.20;99.90;;;;;;4927744;28;20133;-46
2022/06/02 00:23:11;;;;;;;14.80;12.75;;;8.10;99.90;;;;;;4944418;28;20059;-48
2022/06/02 00:25:43;;;;;;;14.25;12.75;;;8.10;99.90;;;;;;5011366;28;20060;-46
2022/06/02 00:28:50;;;;;;;15.20;13.70;;;8.00;99.90;;;;;;5020882;28;20057;-47
2022/06/02 00:31:38;;;;;;;14.90;13.40;;;8.00;99.90;;;;;;5036487;28;20059;-45
2022/06/02 00:34:25;;;;;;;17.10;15.40;;;7.90;99.90;;;;;;5005678;28;20103;-45
2022/06/02 00:37:04;;;;;;;19.00;17.02;;;7.90;99.90;;;;;;5040744;28;20056;-45
2022/06/02 00:39:32;;;;;;;14.52;13.10;;;7.90;99.90;;;;;;5040979;28;20061;-45
2022/06/02 00:42:26;;;;;;;12.10;11.00;;;7.90;99.90;;;;;;5042073;28;20063;-44
2022/06/02 00:45:12;;;;;;;11.30;9.63;;;7.80;99.90;;;;;;5022176;28;20154;-45
2022/06/02 00:47:47;;;;;;;13.77;9.98;;;7.70;99.90;;;;;;5040605;28;20060;-44
2022/06/02 00:50:51;;;;;;;9.95;9.05;;;7.70;99.90;;;;;;5040368;28;20142;-44
2022/06/02 00:53:36;;;;;;;10.27;9.38;;;7.70;99.90;;;;;;5038830;28;20057;-45
2022/06/02 00:59:14;;;;;;;9.98;9.18;;;7.60;99.90;;;;;;5041270;28;20053;-45
2022/06/02 01:01:39;;;;;;;12.25;11.15;;;7.60;99.90;;;;;;5043316;28;20084;-44
2022/06/02 01:04:17;;;;;;;13.30;12.00;;;7.50;99.90;;;;;;5044887;28;20053;-45
2022/06/02 01:07:18;;;;;;;10.48;9.52;;;7.50;99.90;;;;;;5042862;28;20407;-45
2022/06/02 01:10:16;;;;;;;8.73;7.93;;;7.50;99.90;;;;;;5044548;28;20052;-44
2022/06/02 01:13:19;;;;;;;8.32;7.57;;;7.50;99.90;;;;;;4962000;28;20091;-45
2022/06/02 01:16:12;;;;;;;7.72;7.03;;;7.40;99.90;;;;;;4961573;28;20090;-45
2022/06/02 01:18:48;;;;;;;9.15;8.18;;;7.40;99.90;;;;;;4962516;28;20093;-44
2022/06/02 01:21:51;;;;;;;8.65;6.38;;;7.40;99.90;;;;;;4956112;28;20054;-45
2022/06/02 01:24:38;;;;;;;6.53;5.68;;;7.30;99.90;;;;;;4957342;28;20242;-45
2022/06/02 01:27:28;;;;;;;7.38;6.68;;;7.30;99.90;;;;;;4962640;28;20055;-46
2022/06/02 01:30:21;;;;;;;10.50;8.45;;;7.30;99.90;;;;;;4947180;28;20534;-47
2022/06/02 01:32:59;;;;;;;9.23;8.23;;;7.20;99.90;;;;;;4962867;28;20588;-45
2022/06/02 01:36:01;;;;;;;10.13;9.13;;;7.30;99.90;;;;;;4963553;28;20082;-46
2022/06/02 01:38:58;;;;;;;11.70;10.55;;;7.20;99.90;;;;;;4963583;28;20054;-44
2022/06/02 01:41:51;;;;;;;11.45;10.32;;;7.30;99.90;;;;;;4965497;28;20054;-45
2022/06/02 01:44:38;;;;;;;13.88;12.48;;;7.30;99.90;;;;;;4963000;28;20059;-46
2022/06/02 01:47:14;;;;;;;15.02;13.52;;;7.30;99.90;;;;;;4946322;28;20058;-45
2022/06/02 01:49:53;;;;;;;11.02;8.88;;;7.30;99.90;;;;;;5001583;28;20092;-45
2022/06/02 01:52:31;;;;;;;13.40;12.07;;;7.20;99.90;;;;;;5043572;28;20494;-44
2022/06/02 01:55:08;;;;;;;13.52;12.13;;;7.20;99.90;;;;;;5043614;28;20482;-45
2022/06/02 01:57:55;;;;;;;12.13;10.75;;;7.20;99.90;;;;;;5043393;28;20056;-46
2022/06/02 02:00:25;;;;;;;10.93;9.93;;;7.20;99.90;;;;;;5043465;28;20067;-44
2022/06/02 02:03:14;;;;;;;11.45;10.25;;;7.20;99.90;;;;;;5043317;28;20426;-48
2022/06/02 02:06:03;;;;;;;9.85;8.93;;;7.20;99.90;;;;;;5043613;28;20049;-44
2022/06/02 02:08:59;;;;;;;11.07;9.85;;;7.20;99.90;;;;;;5044117;28;20063;-45
2022/06/02 02:11:31;;;;;;;8.48;7.60;;;7.20;99.90;;;;;;5017460;28;20091;-44
2022/06/02 02:14:16;;;;;;;9.05;8.25;;;7.20;99.90;;;;;;5037824;28;20512;-45
2022/06/02 02:16:47;;;;;;;8.25;7.45;;;7.10;99.90;;;;;;5024568;28;20060;-49
2022/06/02 02:19:28;;;;;;;8.73;7.93;;;7.10;99.90;;;;;;5043587;28;20049;-44
2022/06/02 02:22:15;;;;;;;7.70;7.03;;;7.10;99.90;;;;;;5043142;28;20067;-44
2022/06/02 02:25:06;;;;;;;9.23;7.55;;;7.00;99.90;;;;;;5043033;28;20048;-44
2022/06/02 02:28:07;;;;;;;9.85;8.00;;;7.00;99.90;;;;;;5043015;28;20088;-44
2022/06/02 02:30:45;;;;;;;12.07;10.00;;;7.10;99.90;;;;;;5041226;28;20503;-44
2022/06/02 02:33:31;;;;;;;9.48;8.43;;;7.10;99.90;;;;;;5043227;28;20041;-45
2022/06/02 02:35:56;;;;;;;11.98;10.88;;;7.10;99.90;;;;;;5043449;28;20052;-47
2022/06/02 02:38:44;;;;;;;15.25;13.57;;;7.10;99.90;;;;;;5043467;28;20139;-45
2022/06/02 02:41:23;;;;;;;11.15;10.05;;;7.10;99.90;;;;;;5025349;28;20068;-44
2022/06/02 02:44:00;;;;;;;12.15;10.52;;;7.10;99.90;;;;;;5042428;28;20429;-45
2022/06/02 02:46:43;;;;;;;11.80;10.20;;;7.10;99.90;;;;;;5043159;28;20074;-45
2022/06/02 02:49:25;;;;;;;12.27;10.98;;;7.10;99.90;;;;;;5043628;28;20059;-45
2022/06/02 02:52:09;;;;;;;11.18;9.98;;;7.10;99.90;;;;;;5044371;28;20114;-46
2022/06/02 02:54:47;;;;;;;10.65;9.65;;;7.10;99.90;;;;;;5046186;28;20061;-45
2022/06/02 02:57:50;;;;;;;10.43;9.43;;;7.00;99.90;;;;;;5043592;28;20114;-47
2022/06/02 03:00:22;;;;;;;10.95;9.75;;;7.00;99.90;;;;;;4961145;28;20526;-48
2022/06/02 03:02:59;;;;;;;11.80;10.60;;;7.00;99.90;;;;;;4961372;28;20050;-45
2022/06/02 03:05:27;;;;;;;11.32;10.13;;;7.00;99.90;;;;;;4961217;28;20313;-46
2022/06/02 03:08:04;;;;;;;14.18;12.75;;;6.90;99.90;;;;;;4961751;28;20047;-45
2022/06/02 03:10:39;;;;;;;11.45;10.27;;;6.90;99.90;;;;;;4960973;28;20069;-47
2022/06/02 03:13:22;;;;;;;12.65;11.38;;;6.90;99.90;;;;;;4960324;28;20057;-47
2022/06/02 03:16:07;;;;;;;;;;;6.90;99.90;;;;;;4960806;28;20066;-45
2022/06/02 03:18:46;;;;;;;13.20;11.80;;;6.90;99.90;;;;;;4961340;28;19949;-44
2022/06/02 03:21:16;;;;;;;9.00;8.10;;;6.90;99.90;;;;;;4961129;28;20051;-44
2022/06/02 03:24:01;;;;;;;9.60;7.63;;;6.90;99.90;;;;;;4954381;28;20062;-45
2022/06/02 03:26:51;;;;;;;9.63;8.63;;;6.90;99.90;;;;;;4960465;28;20124;-44
2022/06/02 03:29:34;;;;;;;10.35;9.35;;;6.90;99.90;;;;;;4944208;28;20529;-44
2022/06/02 03:32:15;;;;;;;11.75;10.45;;;6.90;99.90;;;;;;4960766;28;20581;-45
2022/06/02 03:35:06;;;;;;;11.73;10.32;;;6.90;99.90;;;;;;4961117;28;20074;-45
2022/06/02 03:37:47;;;;;;;12.32;9.30;;;6.90;99.90;;;;;;5002432;28;20429;-44
2022/06/02 03:40:22;;;;;;;11.07;9.75;;;6.90;99.90;;;;;;5002874;28;20050;-46
2022/06/02 03:43:15;;;;;;;11.07;9.98;;;7.00;99.90;;;;;;5002332;28;20108;-45
2022/06/02 03:45:56;;;;;;;9.40;8.52;;;7.00;99.90;;;;;;5015099;28;20053;-45
2022/06/02 03:48:53;;;;;;;9.60;8.48;;;7.00;99.90;;;;;;5021944;28;20053;-45
2022/06/02 03:51:33;;;;;;;9.68;8.65;;;7.00;99.90;;;;;;4908303;29;20060;-47
2022/06/02 03:54:22;;;;;;;11.02;9.93;;;7.20;99.90;;;;;;4906363;29;20139;-45
2022/06/02 03:57:03;;;;;;;12.50;11.30;;;7.50;99.90;;;;;;4886954;29;20056;-44
2022/06/02 03:59:49;;;;;;;10.30;9.35;;;8.30;99.90;;;;;;4903371;29;20582;-45
2022/06/02 04:02:27;;;;;;;9.70;8.40;;;9.40;99.90;;;;;;4916765;29;20070;-45
2022/06/02 04:05:27;;;;;;;9.98;8.98;;;10.20;99.90;;;;;;4918431;29;20503;-46
2022/06/02 04:08:04;;;;;;;9.80;8.80;;;10.70;99.90;;;;;;4921053;29;20665;-47
2022/06/02 04:11:05;;;;;;;10.68;9.68;;;11.60;99.90;;;;;;4925727;29;20649;-48
2022/06/02 04:13:43;;;;;;;11.52;7.90;;;12.60;99.90;;;;;;4865679;29;20061;-50
2022/06/02 04:16:26;;;;;;;10.25;9.35;;;13.40;99.90;;;;;;4865676;29;20437;-47
2022/06/02 04:22:22;;;;;;;8.27;7.57;;;14.90;99.90;;;;;;4865389;29;20060;-45
2022/06/02 04:25:07;;;;;;;8.10;7.32;;;15.60;99.90;;;;;;4868967;29;20065;-46
2022/06/02 04:27:46;;;;;;;6.85;6.13;;;16.10;99.90;;;;;;4856497;29;20071;-47
2022/06/02 04:30:30;;;;;;;5.97;5.47;;;16.50;99.90;;;;;;4921197;29;20479;-45
2022/06/02 04:33:14;;;;;;;4.60;4.20;;;16.70;99.90;;;;;;4921432;29;20086;-45
2022/06/02 04:35:47;;;;;;;6.15;4.45;;;16.90;99.90;;;;;;4892777;29;20062;-48
2022/06/02 04:38:24;;;;;;;5.60;4.97;;;17.10;99.90;;;;;;4908992;29;20483;-45
2022/06/02 04:41:13;;;;;;;6.03;5.50;;;17.30;99.90;;;;;;4924870;29;20514;-47
2022/06/02 04:44:07;;;;;;;6.07;5.55;;;17.50;99.90;;;;;;4924912;29;20533;-47
2022/06/02 04:46:55;;;;;;;7.57;5.85;;;17.70;99.90;;;;;;4924871;29;20139;-45
2022/06/02 04:49:35;;;;;;;6.15;5.55;;;18.00;99.90;;;;;;4934802;28;20606;-45
2022/06/02 04:52:39;;;;;;;7.63;5.68;;;18.50;99.90;;;;;;4987728;28;20054;-46
2022/06/02 04:55:10;;;;;;;;;;;18.80;99.90;;;;;;5005922;28;20045;-44
2022/06/02 04:58:14;;;;;;;6.50;6.00;;;19.00;99.90;;;;;;5004798;28;20280;-44
2022/06/02 05:00:48;;;;;;;8.15;7.38;;;19.60;99.90;;;;;;5022059;28;20057;-44
2022/06/02 05:03:33;;;;;;;7.22;6.63;;;19.90;99.90;;;;;;5044616;28;20514;-44
2022/06/02 05:06:11;;;;;;;8.15;6.68;;;20.20;99.90;;;;;;5020456;28;20510;-43
2022/06/02 05:08:58;;;;;;;6.93;6.25;;;20.60;99.90;;;;;;5044663;28;20080;-45
2022/06/02 05:11:37;;;;;;;7.28;6.53;;;20.60;99.90;;;;;;5044783;28;20369;-46
2022/06/02 05:14:36;;;;;;;6.97;6.38;;;21.00;99.90;;;;;;5044638;28;20416;-45
2022/06/02 05:17:08;;;;;;;6.22;5.50;;;21.30;99.90;;;;;;5026242;28;20563;-44
2022/06/02 05:19:52;;;;;;;5.82;5.32;;;21.90;99.90;;;;;;5045202;28;20088;-47
2022/06/02 05:22:36;;;;;;;5.20;4.70;;;22.50;98.40;;;;;;5040027;28;20045;-45
2022/06/02 05:25:12;;;;;;;4.53;4.13;;;22.80;98.10;;;;;;5026725;28;20064;-48
2022/06/02 05:28:35;;;;;;;5.80;4.82;;;23.20;97.20;;;;;;5043164;28;20555;-47
2022/06/02 05:31:21;;;;;;;6.07;4.27;;;23.30;96.90;;;;;;4943966;28;20066;-47
2022/06/02 05:34:06;;;;;;;5.93;4.88;;;23.80;96.80;;;;;;4945328;28;20334;-46
2022/06/02 05:37:10;;;;;;;5.65;3.80;;;24.10;96.60;;;;;;4945319;28;20161;-45
2022/06/02 05:39:52;;;;;;;6.22;4.15;;;24.20;94.00;;;;;;4936976;28;20418;-46
2022/06/02 05:42:45;;;;;;;5.43;3.97;;;24.60;94.20;;;;;;4962145;28;20146;-47
2022/06/02 05:45:28;;;;;;;5.15;4.20;;;24.60;93.00;;;;;;4952967;28;20047;-46
2022/06/02 05:48:23;;;;;;;7.63;4.03;;;24.80;92.60;;;;;;4948293;28;20407;-47
2022/06/02 05:51:00;;;;;;;12.75;4.28;;;25.30;92.80;;;;;;4954608;28;20054;-46
2022/06/02 05:53:37;;;;;;;4.22;3.35;;;25.70;92.70;;;;;;4943830;28;20113;-45
2022/06/02 05:56:06;;;;;;;4.00;2.90;;;25.90;92.40;;;;;;4942521;29;20059;-45
2022/06/02 05:58:55;;;;;;;6.32;3.10;;;26.20;91.30;;;;;;4942700;29;20429;-45
2022/06/02 06:01:43;;;;;;;4.47;3.38;;;26.30;90.50;;;;;;4968407;28;20516;-45
2022/06/02 06:04:19;;;;;;;5.05;2.97;;;26.50;90.20;;;;;;5018349;28;20550;-45
2022/06/02 06:07:01;;;;;;;5.30;2.88;;;26.80;90.20;;;;;;5023078;28;20418;-46
2022/06/02 06:09:46;;;;;;;;;;;27.00;90.00;;;;;;5023925;28;20051;-46
2022/06/02 06:12:24;;;;;;;4.15;2.35;;;27.00;86.90;;;;;;5004715;28;20404;-47
2022/06/02 06:15:27;;;;;;;4.70;2.88;;;27.00;85.80;;;;;;5024541;28;20059;-47
2022/06/02 06:18:28;;;;;;;3.53;2.35;;;27.20;84.20;;;;;;5019128;28;20144;-47
2022/06/02 06:21:11;;;;;;;3.92;2.40;;;27.10;82.90;;;;;;5019263;28;20492;-46
2022/06/02 06:23:52;;;;;;;3.92;2.15;;;27.40;83.40;;;;;;5022559;28;20385;-47
2022/06/02 06:26:33;;;;;;;2.72;2.33;;;27.30;81.50;;;;;;5016532;28;20616;-45
2022/06/02 06:29:01;;;;;;;3.23;2.20;;;27.60;82.80;;;;;;5023130;28;20045;-46
2022/06/02 06:31:51;;;;;;;3.85;2.10;;;27.70;82.40;;;;;;5022261;28;20432;-49
2022/06/02 06:34:43;;;;;;;4.25;2.47;;;28.20;82.20;;;;;;5021506;28;20081;-48
2022/06/02 06:37:51;;;;;;;3.53;1.65;;;28.40;81.80;;;;;;5022728;28;20060;-46
2022/06/02 06:40:49;;;;;;;3.38;1.70;;;27.70;77.90;;;;;;4935459;29;20085;-47
2022/06/02 06:43:35;;;;;;;2.45;1.20;;;27.50;80.10;;;;;;4923957;29;20139;-48
2022/06/02 06:46:20;;;;;;;3.40;1.42;;;27.60;78.90;;;;;;4925284;29;20063;-49
2022/06/02 06:48:58;;;;;;;1.95;1.27;;;27.40;79.00;;;;;;4926282;29;20534;-48
2022/06/02 06:52:02;;;;;;;3.15;1.30;;;27.30;76.30;;;;;;4941068;29;20095;-45
2022/06/02 06:54:52;;;;;;;1.92;1.30;;;27.40;78.10;;;;;;4912470;29;20117;-46
2022/06/02 06:57:46;;;;;;;3.90;1.50;;;27.20;77.00;;;;;;4924346;29;20059;-46
2022/06/02 07:00:28;;;;;;;3.72;1.35;;;27.00;80.00;;;;;;4867298;29;20104;-46
2022/06/02 07:03:09;;;;;;;2.35;1.20;;;27.10;78.50;;;;;;4866649;29;20056;-45
2022/06/02 07:06:10;;;;;;;4.50;1.67;;;27.20;78.80;;;;;;4882958;29;20089;-45
2022/06/02 07:08:46;;;;;;;2.85;1.42;;;26.80;76.80;;;;;;4903386;29;20094;-47
2022/06/02 07:14:52;;;;;;;2.90;1.23;;;25.80;80.30;;;;;;4902211;29;20056;-45
2022/06/02 07:18:06;;;;;;;2.92;1.20;;;24.10;80.80;;;;;;4890460;29;20597;-48
2022/06/02 07:20:57;;;;;;;2.50;1.33;;;23.10;83.50;;;;;;4921018;29;20074;-45
2022/06/02 07:23:38;;;;;;;2.13;1.20;;;22.90;84.00;;;;;;4940085;29;20656;-44
2022/06/02 07:26:19;;;;;;;2.30;1.35;;;22.20;84.50;;;;;;4940216;29;20055;-48
2022/06/02 07:32:15;;;;;;;2.53;1.58;;;20.70;87.70;;;;;;4942398;28;20117;-45
2022/06/02 07:34:53;;;;;;;2.30;1.40;;;20.00;90.00;;;;;;4940917;28;20109;-45
2022/06/02 07:37:31;;;;;;;3.15;1.63;;;19.50;91.10;;;;;;4938106;28;20110;-44
2022/06/02 07:40:29;;;;;;;2.75;1.52;;;19.00;91.70;;;;;;4941406;29;20180;-45
2022/06/02 07:43:16;;;;;;;2.45;1.70;;;19.20;92.60;;;;;;4923876;29;20071;-45
2022/06/02 07:45:58;;;;;;;5.00;1.60;;;19.80;91.70;;;;;;4960488;28;20105;-46
2022/06/02 07:49:04;;;;;;;2.30;1.30;;;20.20;91.60;;;;;;4978763;28;20086;-45
2022/06/02 07:51:30;;;;;;;3.97;1.70;;;20.50;91.40;;;;;;4977037;28;20107;-46
2022/06/02 07:54:15;;;;;;;2.40;1.45;;;20.40;91.90;;;;;;4970121;28;20042;-45
2022/06/02 07:57:22;;;;;;;2.72;1.52;;;20.10;91.30;;;;;;4965407;28;20061;-46
2022/06/02 07:59:53;;;;;;;3.95;1.33;;;19.70;92.10;;;;;;4961173;28;20062;-49
2022/06/02 08:02:29;;;;;;;3.35;1.50;;;19.00;92.30;;;;;;4971001;28;20042;-45
2022/06/02 08:05:22;;;;;;;3.85;1.80;;;19.10;92.30;;;;;;4966873;28;20069;-46
2022/06/02 08:08:08;;;;;;;1.60;1.40;;;19.40;92.90;;;;;;4978833;28;20065;-45
2022/06/02 08:10:40;;;;;;;2.50;1.80;;;19.60;92.60;;;;;;5006000;28;20061;-46
2022/06/02 08:13:09;;;;;;;4.00;1.65;;;19.80;92.80;;;;;;5040455;28;20049;-48
2022/06/02 08:16:17;;;;;;;2.92;1.85;;;19.80;92.90;;;;;;5038496;28;20052;-44
2022/06/02 08:19:25;;;;;;;5.00;1.80;;;19.40;92.60;;;;;;5022210;28;20055;-46
2022/06/02 08:21:55;;;;;;;2.35;1.38;;;19.00;93.50;;;;;;5040736;28;20053;-45
2022/06/02 08:24:46;;;;;;;2.33;1.75;;;19.10;93.90;;;;;;5040198;28;20040;-44
2022/06/02 08:28:08;;;;;;;2.15;1.58;;;19.30;93.90;;;;;;5018768;28;20122;-45
2022/06/02 08:30:55;;;;;;;2.90;1.67;;;19.50;92.10;;;;;;4938387;29;20708;-47
2022/06/02 08:33:40;;;;;;;2.58;1.60;;;19.70;92.50;;;;;;4939138;29;20055;-47
2022/06/02 08:36:20;;;;;;;2.22;1.60;;;19.70;94.50;;;;;;4939409;29;20685;-46
2022/06/02 08:38:57;;;;;;;3.45;1.70;;;20.10;94.00;;;;;;4934968;29;20060;-45
2022/06/02 08:42:00;;;;;;;4.15;1.70;;;20.30;94.50;;;;;;4939450;29;20454;-44
2022/06/02 08:44:44;;;;;;;4.07;1.52;;;20.00;92.70;;;;;;4939632;29;20534;-45
2022/06/02 08:47:38;;;;;;;2.78;1.80;;;19.60;92.90;;;;;;4933195;29;20074;-45
2022/06/02 08:50:56;;;;;;;3.17;1.90;;;19.40;94.60;;;;;;4922797;29;20050;-45
2022/06/02 08:53:59;;;;;;;3.25;2.20;;;19.80;94.20;;;;;;4920444;29;20082;-44
2022/06/02 08:56:49;;;;;;;4.68;2.15;;;20.10;93.60;;;;;;4920507;29;20430;-48
2022/06/02 08:59:29;;;;;;;2.78;1.90;;;20.10;93.40;;;;;;4904674;29;20119;-48
2022/06/02 09:02:36;;;;;;;2.83;1.73;;;20.30;94.30;;;;;;4915123;29;20056;-46
2022/06/02 09:05:39;;;;;;;4.30;2.10;;;20.00;93.20;;;;;;4938554;28;20113;-47
2022/06/02 09:08:15;;;;;;;5.43;1.80;;;19.90;94.60;;;;;;4951338;28;20090;-45
2022/06/02 09:10:56;;;;;;;4.45;2.10;;;20.10;93.60;;;;;;4959220;28;20109;-45
2022/06/02 09:13:49;;;;;;;5.43;2.38;;;20.10;93.30;;;;;;4960599;28;20051;-47
2022/06/02 09:16:22;;;;;;;3.97;2.10;;;20.10;93.20;;;;;;4945861;28;20066;-46
2022/06/02 09:19:17;;;;;;;6.20;2.80;;;20.00;93.80;;;;;;4944280;28;20055;-49
2022/06/02 09:22:00;;;;;;;3.90;2.08;;;19.80;94.40;;;;;;4962773;28;20062;-45
2022/06/02 09:25:01;;;;;;;4.70;2.78;;;19.60;94.30;;;;;;4963009;28;20047;-46
2022/06/02 09:28:06;;;;;;;6.82;2.45;;;19.30;94.60;;;;;;4961982;28;20555;-49
2022/06/02 09:30:53;;;;;;;4.40;2.22;;;19.10;94.70;;;;;;4959727;28;20113;-44
2022/06/02 09:33:48;;;;;;;4.22;1.88;;;19.10;95.20;;;;;;4961418;28;20461;-49
2022/06/02 09:36:51;;;;;;;2.90;2.10;;;19.30;94.80;;;;;;4960990;28;20073;-46
2022/06/02 09:39:44;;;;;;;4.10;1.60;;;19.80;94.30;;;;;;4961910;28;20047;-47
2022/06/02 09:42:24;;;;;;;4.13;1.98;;;20.00;94.50;;;;;;4961499;28;20545;-47
2022/06/02 09:45:06;;;;;;;2.65;1.70;;;20.40;94.00;;;;;;4961654;28;20050;-47
2022/06/02 09:47:45;;;;;;;2.60;1.92;;;20.40;94.00;;;;;;4956454;28;20069;-48
2022/06/02 09:50:35;;;;;;;5.20;1.73;;;20.40;92.80;;;;;;4944263;28;20054;-46
2022/06/02 09:53:25;;;;;;;2.22;1.65;;;20.00;94.40;;;;;;4944737;28;20576;-48
2022/06/02 09:56:04;;;;;;;3.40;1.73;;;19.80;94.50;;;;;;4960298;28;20274;-46
2022/06/02 09:58:41;;;;;;;4.47;2.00;;;19.50;93.90;;;;;;4960313;28;20046;-45
2022/06/02 10:01:32;;;;;;;5.63;2.47;;;19.90;95.40;;;;;;4942751;28;20517;-49
2022/06/02 10:04:09;;;;;;;3.95;2.13;;;20.00;95.60;;;;;;4959052;28;20098;-46
2022/06/02 10:06:53;;;;;;;6.82;2.10;;;19.90;94.50;;;;;;4939895;28;20086;-48
2022/06/02 10:09:22;;;;;;;1.75;1.60;;;19.80;94.30;;;;;;5021084;28;20092;-45
2022/06/02 10:15:17;;;;;;;2.65;1.35;;;20.00;94.40;;;;;;5021714;28;20474;-46
2022/06/02 10:17:57;;;;;;;3.55;1.38;;;20.00;93.10;;;;;;5008152;28;20057;-47
2022/06/02 10:20:53;;;;;;;2.17;1.52;;;20.40;93.50;;;;;;5022205;28;20053;-47
2022/06/02 10:24:03;;;;;;;3.03;1.70;;;19.90;92.40;;;;;;5015333;28;20045;-46
2022/06/02 10:26:57;;;;;;;2.20;1.63;;;19.80;93.70;;;;;;5018566;28;20092;-46
2022/06/02 10:29:40;;;;;;;;;;;19.60;93.40;;;;;;5022589;28;20060;-46
2022/06/02 10:32:33;;;;;;;2.33;1.75;;;19.50;93.50;;;;;;5022481;28;19941;-45
2022/06/02 10:35:37;;;;;;;3.45;1.60;;;19.50;94.00;;;;;;5023728;28;20053;-47
2022/06/02 10:38:21;;;;;;;1.92;1.50;;;19.40;94.60;;;;;;5006524;28;20734;-48
2022/06/02 10:41:13;;;;;;;3.15;1.40;;;19.60;94.50;;;;;;4998672;28;20088;-46
2022/06/02 10:43:51;;;;;;;4.60;1.70;;;20.00;94.60;;;;;;5022354;28;20049;-47
2022/06/02 10:47:02;;;;;;;3.80;1.88;;;20.40;94.20;;;;;;5022067;28;20053;-45
2022/06/02 10:49:58;;;;;;;3.53;1.95;;;21.00;93.30;;;;;;4922361;29;20052;-45
2022/06/02 10:53:04;;;;;;;2.15;1.75;;;21.00;93.80;;;;;;4921164;29;20060;-46
2022/06/02 10:55:54;;;;;;;2.60;1.85;;;20.80;93.50;;;;;;4921400;29;20604;-46
2022/06/02 10:59:16;;;;;;;3.75;2.28;;;20.70;92.80;;;;;;4922052;29;20062;-46
2022/06/02 11:02:31;;;;;;;2.70;1.70;;;20.60;92.60;;;;;;4929345;29;20055;-46
2022/06/02 11:05:28;;;;;;;3.38;1.67;;;20.40;93.00;;;;;;4938912;29;20064;-46
2022/06/02 11:08:12;;;;;;;2.45;1.88;;;20.20;94.30;;;;;;4924949;29;20083;-45
2022/06/02 11:10:44;;;;;;;3.08;1.88;;;20.10;94.30;;;;;;4923755;29;20142;-45
2022/06/02 11:13:13;;;;;;;3.15;2.00;;;19.90;94.20;;;;;;4934070;29;20059;-46
2022/06/02 11:16:06;;;;;;;3.03;1.88;;;19.70;93.70;;;;;;4934223;29;20074;-44
2022/06/02 11:18:55;;;;;;;4.65;1.92;;;19.90;95.10;;;;;;4940306;29;20526;-45
2022/06/02 11:21:23;;;;;;;3.45;1.95;;;19.90;94.30;;;;;;4940109;29;20051;-48
2022/06/02 11:24:18;;;;;;;2.85;1.90;;;19.90;94.70;;;;;;4940689;29;20154;-44
2022/06/02 11:27:15;;;;;;;3.28;2.20;;;20.10;94.60;;;;;;5015892;28;20122;-44
2022/06/02 11:30:14;;;;;;;2.83;1.90;;;20.10;97.00;;;;;;5038703;28;20479;-45
2022/06/02 11:32:44;;;;;;;2.25;1.60;;;20.70;96.00;;;;;;5039570;28;20061;-47
2022/06/02 11:35:34;;;;;;;3.47;1.52;;;21.00;96.00;;;;;;5018953;28;20099;-46
2022/06/02 11:38:17;;;;;;;2.97;1.90;;;21.20;95.10;;;;;;5039434;28;20573;-45
2022/06/02 11:41:08;;;;;;;3.65;1.95;;;21.20;94.30;;;;;;5039938;28;20122;-45
2022/06/02 11:44:00;;;;;;;3.17;1.42;;;21.00;93.20;;;;;;5021677;28;20057;-44
2022/06/02 11:46:44;;;;;;;1.77;1.48;;;20.90;93.00;;;;;;5041330;28;20471;-45
2022/06/02 11:49:34;;;;;;;3.13;1.73;;;20.80;92.80;;;;;;5041235;28;20119;-44
2022/06/02 11:52:23;;;;;;;2.83;1.92;;;20.30;94.10;;;;;;5022978;28;20087;-45
2022/06/02 11:55:30;;;;;;;4.45;1.58;;;20.00;95.20;;;;;;5042001;28;20088;-45
2022/06/02 11:58:33;;;;;;;4.68;2.60;;;19.80;95.40;;;;;;5044120;28;20504;-46
2022/06/02 12:01:17;;;;;;;6.82;2.33;;;19.70;94.80;;;;;;5042268;28;20044;-47
2022/06/02 12:03:55;;;;;;;2.50;1.90;;;19.60;95.60;;;;;;5040712;28;20052;-45
2022/06/02 12:06:45;;;;;;;2.92;1.83;;;19.50;95.80;;;;;;5028780;28;20049;-46
2022/06/02 12:09:36;;;;;;;2.80;1.70;;;19.50;94.70;;;;;;5027451;28;20048;-47
2022/06/02 12:12:47;;;;;;;3.47;1.80;;;19.60;95.60;;;;;;5027708;28;20132;-47
2022/06/02 12:15:25;;;;;;;6.38;2.10;;;19.70;95.60;;;;;;5025482;28;20061;-46
2022/06/02 12:18:15;;;;;;;3.10;1.75;;;19.80;95.00;;;;;;5040709;28;20479;-45
2022/06/02 12:21:04;;;;;;;2.33;1.95;;;19.70;94.90;;;;;;5036299;28;20083;-46
2022/06/02 12:23:39;;;;;;;3.22;2.20;;;19.70;95.80;;;;;;5039651;28;20562;-44
2022/06/02 12:26:42;;;;;;;5.28;1.77;;;19.70;95.90;;;;;;5034274;28;20179;-45
2022/06/02 12:29:38;;;;;;;3.80;1.77;;;19.70;95.40;;;;;;5039358;28;20751;-46
2022/06/02 12:32:25;;;;;;;3.28;1.92;;;19.70;96.20;;;;;;5040972;28;20064;-45
2022/06/02 12:35:24;;;;;;;3.92;1.92;;;19.60;95.60;;;;;;5039654;28;20136;-46
2022/06/02 12:38:21;;;;;;;2.67;1.75;;;19.80;96.80;;;;;;5040432;28;20519;-45
2022/06/02 12:40:57;;;;;;;2.95;1.90;;;19.90;95.70;;;;;;5034311;28;20075;-45
2022/06/02 12:43:26;;;;;;;3.95;1.60;;;19.80;95.60;;;;;;5040662;28;20061;-45
2022/06/02 12:46:16;;;;;;;2.92;1.80;;;19.80;95.40;;;;;;5020791;28;20121;-47
2022/06/02 12:48:47;;;;;;;3.03;1.67;;;19.90;95.60;;;;;;5040197;28;20045;-45
2022/06/02 12:51:46;;;;;;;2.95;1.50;;;20.00;96.90;;;;;;5040669;28;20055;-45
2022/06/02 12:54:47;;;;;;;3.40;1.60;;;20.20;95.70;;;;;;5041172;28;20510;-45
2022/06/02 12:57:50;;;;;;;4.15;1.80;;;20.30;95.50;;;;;;5043608;28;20049;-46
2022/06/02 13:00:34;;;;;;;4.30;2.05;;;20.20;94.00;;;;;;5026996;28;20504;-48
2022/06/02 13:03:37;;;;;;;2.50;1.88;;;20.20;95.40;;;;;;5044917;28;20462;-47
2022/06/02 13:06:43;;;;;;;3.00;1.70;;;20.10;95.00;;;;;;5024974;28;20049;-45
2022/06/02 13:09:35;;;;;;;2.50;1.90;;;20.00;95.20;;;;;;4943660;29;20059;-45
2022/06/02 13:12:09;;;;;;;4.13;2.10;;;19.80;95.80;;;;;;4943553;29;20055;-47
2022/06/02 13:14:56;;;;;;;3.83;2.45;;;19.40;95.60;;;;;;4944239;29;20494;-46
2022/06/02 13:17:53;;;;;;;3.58;2.47;;;19.20;95.70;;;;;;4928133;29;20047;-45
2022/06/02 13:20:51;;;;;;;2.60;1.83;;;19.10;96.00;;;;;;4890583;29;20064;-46
2022/06/02 13:23:53;;;;;;;2.65;2.00;;;19.00;96.50;;;;;;4881176;29;20393;-48
2022/06/02 13:27:06;;;;;;;3.63;2.22;;;19.10;96.00;;;;;;4884063;29;20057;-45
2022/06/02 13:29:50;;;;;;;3.38;1.88;;;19.10;96.00;;;;;;4885223;29;20103;-46
2022/06/02 13:32:55;;;;;;;5.05;1.95;;;19.00;96.30;;;;;;4885512;29;20067;-46
2022/06/02 13:35:30;;;;;;;2.70;1.70;;;19.00;96.60;;;;;;4885749;29;20431;-46
2022/06/02 13:38:14;;;;;;;3.72;1.85;;;19.10;96.60;;;;;;4867912;29;20065;-45
2022/06/02 13:40:51;;;;;;;4.47;3.00;;;19.20;96.20;;;;;;4886806;29;20068;-45
2022/06/02 13:43:34;;;;;;;3.88;1.83;;;19.30;95.30;;;;;;4885258;29;20055;-45
2022/06/02 13:46:18;;;;;;;4.18;2.00;;;19.60;95.30;;;;;;4905089;29;20063;-45
2022/06/02 13:49:03;;;;;;;4.20;2.28;;;19.80;95.70;;;;;;4922359;29;20078;-47
2022/06/02 13:51:59;;;;;;;4.20;2.05;;;19.70;95.10;;;;;;4923652;29;20182;-45
2022/06/02 13:58:06;;;;;;;3.42;1.80;;;19.50;96.00;;;;;;4978549;28;20144;-45
2022/06/02 14:01:06;;;;;;;2.85;1.90;;;19.10;96.40;;;;;;5014087;28;20103;-45
2022/06/02 14:04:09;;;;;;;5.38;2.10;;;18.80;96.60;;;;;;5020153;28;20067;-45
2022/06/02 14:07:04;;;;;;;4.47;2.20;;;18.60;95.50;;;;;;5022244;28;20057;-45
2022/06/02 14:09:50;;;;;;;2.33;1.80;;;18.40;96.60;;;;;;4941527;29;20095;-46
2022/06/02 14:12:45;;;;;;;4.05;2.30;;;18.30;96.00;;;;;;4940825;29;20055;-46
2022/06/02 14:15:29;;;;;;;3.13;1.80;;;18.30;95.70;;;;;;4941685;29;20071;-45
2022/06/02 14:18:07;;;;;;;2.70;2.20;;;18.20;96.20;;;;;;4941959;29;20133;-45
2022/06/02 14:20:45;;;;;;;3.88;1.90;;;18.20;96.70;;;;;;4940996;29;20580;-45
2022/06/02 14:23:19;;;;;;;2.83;1.77;;;18.30;96.80;;;;;;4923789;29;20043;-47
2022/06/02 14:26:09;;;;;;;2.95;1.92;;;18.40;95.80;;;;;;4937129;28;20170;-47
2022/06/02 14:28:38;;;;;;;2.90;1.67;;;18.70;96.00;;;;;;4926470;29;20059;-47
2022/06/02 14:31:25;;;;;;;3.28;1.50;;;18.90;96.60;;;;;;4934485;29;20051;-48
2022/06/02 14:34:05;;;;;;;2.42;1.35;;;19.00;94.40;;;;;;4876252;29;21818;-46
2022/06/02 14:36:39;;;;;;;4.22;1.55;;;19.20;94.10;;;;;;4866805;29;20061;-44
2022/06/02 14:39:26;;;;;;;2.70;1.75;;;19.40;94.40;;;;;;4851303;29;20065;-45
2022/06/02 14:45:21;;;;;;;2.95;1.80;;;19.60;96.40;;;;;;4863119;29;20061;-50
2022/06/02 14:47:55;;;;;;;4.55;1.98;;;19.60;96.80;;;;;;4942383;29;20525;-46
2022/06/02 14:50:29;;;;;;;3.38;2.10;;;19.60;96.50;;;;;;4926236;29;20466;-47
2022/06/02 14:52:58;;;;;;;4.20;1.98;;;19.50;96.70;;;;;;4934453;29;20054;-46
2022/06/02 14:55:33;;;;;;;2.50;1.88;;;19.60;96.80;;;;;;4940253;29;20055;-46